< < Back
Terminal Aerodrome Forecast


Current Version              Previous Versions:   1  2  3  4  5  6  7  8  9  

Terminal Aerodrome Forecast

986
FTUS42 KJAX 032254 AAB
TAFGNV
TAF AMD
KGNV 032254Z 0323/0418 VRB06KT P6SM VCTS BKN040CB BKN250
     FM040100 VRB04KT P6SM BKN250
     FM040600 VRB02KT P6SM OVC250
     FM041400 33005KT P6SM SCT040 BKN250=



Latest METAR

229
SAUS70 KWBC 040700 RRF
MTRGNV
METAR KGNV 040653Z AUTO 00000KT 10SM CLR 25/23 A2993 RMK AO2 SLP129
T02500233


USA.gov is the U.S. government's official web portal to all federal, state and local government web resources and services.